createdAt,value
2022-11-28T00:01:41.408Z,4.57
2022-11-28T00:04:44.183Z,4.60
2022-11-28T00:07:46.791Z,4.63
2022-11-28T00:10:49.270Z,4.64
2022-11-28T00:13:51.578Z,4.65
2022-11-28T00:16:54.190Z,4.61
2022-11-28T00:19:56.605Z,4.54
2022-11-28T00:22:59.070Z,4.55
2022-11-28T00:26:02.722Z,4.60
2022-11-28T00:29:06.073Z,4.69
2022-11-28T00:32:08.399Z,4.70
2022-11-28T00:35:10.952Z,4.65
2022-11-28T00:38:13.251Z,4.69
2022-11-28T00:41:17.086Z,4.72
2022-11-28T00:44:19.285Z,4.75
2022-11-28T00:47:22.281Z,4.70
2022-11-28T00:50:27.766Z,4.74
2022-11-28T00:53:30.562Z,4.74
2022-11-28T00:56:37.233Z,4.67
2022-11-28T00:59:39.725Z,4.71
2022-11-28T01:02:41.965Z,4.72
2022-11-28T01:05:44.710Z,4.71
2022-11-28T01:08:47.270Z,4.63
2022-11-28T01:11:51.119Z,4.67
2022-11-28T01:14:53.745Z,4.64
2022-11-28T01:17:56.241Z,4.68
2022-11-28T01:20:58.864Z,4.69
2022-11-28T01:24:01.468Z,4.64
2022-11-28T01:27:03.791Z,4.68
2022-11-28T01:30:06.669Z,4.70
2022-11-28T01:33:08.956Z,4.63
2022-11-28T01:36:12.520Z,4.57
2022-11-28T01:39:15.763Z,4.61
2022-11-28T01:42:19.492Z,4.62
2022-11-28T01:45:26.327Z,4.62
2022-11-28T01:48:34.225Z,4.68
2022-11-28T01:51:37.474Z,4.68
2022-11-28T01:54:42.003Z,4.63
2022-11-28T01:57:44.407Z,4.67
2022-11-28T02:00:48.641Z,4.64
2022-11-28T02:03:52.603Z,4.67
2022-11-28T02:06:55.488Z,4.58
2022-11-28T02:09:57.759Z,4.51
2022-11-28T02:13:10.990Z,4.53
2022-11-28T02:16:28.503Z,4.50
2022-11-28T02:20:00.312Z,4.56
2022-11-28T02:23:02.551Z,4.59
2022-11-28T02:26:23.980Z,4.52
2022-11-28T02:29:29.321Z,4.53
2022-11-28T02:32:44.072Z,4.48
2022-11-28T02:35:55.877Z,4.49
2022-11-28T02:38:58.333Z,4.52
2022-11-28T02:42:06.917Z,4.47
2022-11-28T02:45:18.344Z,4.44
2022-11-28T02:48:29.245Z,4.50
2022-11-28T02:51:40.765Z,4.44
2022-11-28T02:54:43.815Z,4.41
2022-11-28T02:57:48.927Z,4.42
2022-11-28T03:00:51.946Z,4.47
2022-11-28T03:04:06.337Z,4.42
2022-11-28T03:07:23.714Z,4.50
2022-11-28T03:10:35.853Z,4.46
2022-11-28T03:13:57.431Z,4.42
2022-11-28T03:17:18.856Z,4.45
2022-11-28T03:20:28.782Z,4.49
2022-11-28T03:23:38.939Z,4.44
2022-11-28T03:26:52.596Z,4.46
2022-11-28T03:29:57.105Z,4.47
2022-11-28T03:33:00.911Z,4.51
2022-11-28T03:36:25.264Z,4.52
2022-11-28T03:39:33.674Z,4.45
2022-11-28T03:42:38.303Z,4.48
2022-11-28T03:45:49.031Z,4.52
2022-11-28T03:48:54.605Z,4.52
2022-11-28T03:52:00.712Z,4.55
2022-11-28T03:55:05.815Z,4.46
2022-11-28T03:58:34.384Z,4.43
2022-11-28T04:01:46.445Z,4.48
2022-11-28T04:05:07.649Z,4.53
2022-11-28T04:08:10.081Z,4.44
2022-11-28T04:11:35.608Z,4.34
2022-11-28T04:14:42.134Z,4.30
2022-11-28T04:17:53.081Z,4.30
2022-11-28T04:20:59.081Z,4.21
2022-11-28T04:24:04.097Z,4.20
2022-11-28T04:27:09.999Z,4.13
2022-11-28T04:30:13.797Z,4.13
2022-11-28T04:33:19.025Z,4.12
2022-11-28T04:36:22.831Z,4.10
2022-11-28T04:39:26.441Z,4.08
2022-11-28T04:42:52.593Z,4.06
2022-11-28T04:46:07.090Z,4.08
2022-11-28T04:49:10.288Z,4.10
2022-11-28T04:52:31.218Z,4.05
2022-11-28T04:55:37.536Z,4.04
2022-11-28T04:58:45.786Z,4.02
2022-11-28T05:01:49.921Z,3.99
2022-11-28T05:04:55.635Z,3.95
2022-11-28T05:07:59.449Z,3.99
2022-11-28T05:11:02.384Z,3.92
2022-11-28T05:14:04.897Z,3.88
2022-11-28T05:17:07.540Z,3.88
2022-11-28T05:20:10.293Z,3.85
2022-11-28T05:23:12.666Z,3.91
2022-11-28T05:26:20.141Z,3.93
2022-11-28T05:29:24.865Z,3.85
2022-11-28T05:32:31.317Z,3.87
2022-11-28T05:35:33.571Z,3.90
2022-11-28T05:38:36.217Z,3.94
2022-11-28T05:41:38.750Z,4.02
2022-11-28T05:44:41.437Z,3.94
2022-11-28T05:47:43.627Z,3.99
2022-11-28T05:50:46.178Z,3.92
2022-11-28T05:53:48.464Z,3.89
2022-11-28T05:56:51.110Z,3.91
2022-11-28T05:59:53.378Z,3.95
2022-11-28T06:03:00.991Z,3.95
2022-11-28T06:06:04.052Z,4.01
2022-11-28T06:09:07.235Z,3.99
2022-11-28T06:12:10.274Z,4.02
2022-11-28T06:15:12.480Z,4.05
2022-11-28T06:18:15.080Z,4.06
2022-11-28T06:21:17.296Z,4.04
2022-11-28T06:24:19.810Z,4.10
2022-11-28T06:27:22.186Z,4.04
2022-11-28T06:30:25.095Z,4.10
2022-11-28T06:33:27.373Z,4.10
2022-11-28T06:36:30.801Z,4.04
2022-11-28T06:39:33.074Z,4.10
2022-11-28T06:42:36.368Z,4.09
2022-11-28T06:45:38.621Z,4.11
2022-11-28T06:48:41.328Z,4.19
2022-11-28T06:51:45.752Z,4.12
2022-11-28T06:54:48.277Z,4.15
2022-11-28T06:57:50.433Z,4.06
2022-11-28T07:00:53.111Z,4.14
2022-11-28T07:03:56.418Z,4.17
2022-11-28T07:06:58.970Z,4.16
2022-11-28T07:10:01.224Z,4.20
2022-11-28T07:13:05.551Z,4.27
2022-11-28T07:16:12.001Z,4.34
2022-11-28T07:19:14.670Z,4.27
2022-11-28T07:22:17.116Z,4.37
2022-11-28T07:25:19.649Z,4.39
2022-11-28T07:28:23.567Z,4.37
2022-11-28T07:31:28.638Z,4.53
2022-11-28T07:34:30.913Z,4.62
2022-11-28T07:37:33.363Z,4.62
2022-11-28T07:40:36.031Z,4.65
2022-11-28T07:43:38.802Z,4.80
2022-11-28T07:46:41.149Z,4.80
2022-11-28T07:49:44.045Z,4.96
2022-11-28T07:52:46.572Z,4.82
2022-11-28T07:55:49.554Z,4.79
2022-11-28T07:58:52.792Z,4.77
2022-11-28T08:01:55.320Z,4.62
2022-11-28T08:04:58.271Z,4.77
2022-11-28T08:08:00.938Z,4.82
2022-11-28T08:11:04.911Z,5.03
2022-11-28T08:14:07.304Z,5.34
2022-11-28T08:17:09.966Z,5.42
2022-11-28T08:20:13.375Z,5.27
2022-11-28T08:23:16.039Z,5.07
2022-11-28T08:26:19.458Z,4.98
2022-11-28T08:29:22.134Z,5.21
2022-11-28T08:32:25.704Z,5.31
2022-11-28T08:35:28.234Z,5.31
2022-11-28T08:38:30.511Z,5.27
2022-11-28T08:41:33.080Z,5.43
2022-11-28T08:44:36.080Z,5.13
2022-11-28T08:47:38.703Z,5.06
2022-11-28T08:50:48.045Z,5.16
2022-11-28T08:53:54.950Z,4.82
2022-11-28T08:57:01.380Z,4.83
2022-11-28T09:00:06.185Z,4.84
2022-11-28T09:03:13.181Z,5.09
2022-11-28T09:06:16.905Z,4.93
2022-11-28T09:09:19.890Z,4.99
2022-11-28T09:12:22.557Z,4.99
2022-11-28T09:15:24.910Z,5.16
2022-11-28T09:18:27.402Z,4.95
2022-11-28T09:21:29.718Z,5.05
2022-11-28T09:24:32.323Z,5.06
2022-11-28T09:27:34.567Z,4.99
2022-11-28T09:30:39.702Z,4.89
2022-11-28T09:33:42.751Z,5.24
2022-11-28T09:36:45.234Z,5.22
2022-11-28T09:40:11.487Z,5.22
2022-11-28T09:43:18.659Z,5.54
2022-11-28T09:46:25.988Z,5.56
2022-11-28T09:49:40.859Z,5.42
2022-11-28T09:52:49.481Z,5.16
2022-11-28T09:56:14.514Z,5.30
2022-11-28T09:59:22.881Z,5.45
2022-11-28T10:02:33.971Z,5.03
2022-11-28T10:05:41.436Z,4.84
2022-11-28T10:08:55.997Z,4.90
2022-11-28T10:12:21.662Z,4.66
2022-11-28T10:15:29.749Z,4.69
2022-11-28T10:18:39.815Z,4.67
2022-11-28T10:21:45.178Z,4.72
2022-11-28T10:24:50.233Z,4.93
2022-11-28T10:27:53.346Z,4.85
2022-11-28T10:31:06.991Z,5.08
2022-11-28T10:34:09.163Z,5.33
2022-11-28T10:37:15.963Z,5.32
2022-11-28T10:40:23.577Z,5.44
2022-11-28T10:43:34.129Z,5.41
2022-11-28T10:46:52.171Z,5.56
2022-11-28T10:50:20.112Z,5.63
2022-11-28T10:53:31.598Z,5.70
2022-11-28T10:56:34.079Z,5.71
2022-11-28T11:00:03.719Z,5.67
2022-11-28T11:03:11.707Z,5.14
2022-11-28T11:06:13.987Z,4.97
2022-11-28T11:09:16.489Z,5.13
2022-11-28T11:12:25.639Z,5.07
2022-11-28T11:15:29.884Z,4.99
2022-11-28T11:18:34.798Z,5.12
2022-11-28T11:21:37.281Z,5.09
2022-11-28T11:24:39.559Z,4.91
2022-11-28T11:27:52.461Z,5.25
2022-11-28T11:31:00.104Z,5.15
2022-11-28T11:34:04.245Z,5.00
2022-11-28T11:37:20.663Z,5.21
2022-11-28T11:40:23.215Z,5.30
2022-11-28T11:43:33.055Z,5.18
2022-11-28T11:46:36.122Z,5.42
2022-11-28T11:49:44.962Z,5.46
2022-11-28T11:53:04.319Z,5.47
2022-11-28T11:56:06.859Z,5.40
2022-11-28T11:59:15.539Z,5.40
2022-11-28T12:02:23.316Z,5.35
2022-11-28T12:06:12.260Z,5.23
2022-11-28T12:09:23.219Z,5.31
2022-11-28T12:12:29.207Z,4.93
2022-11-28T12:15:45.500Z,5.10
2022-11-28T12:18:54.067Z,5.02
2022-11-28T12:22:08.411Z,4.99
2022-11-28T12:25:16.630Z,4.98
2022-11-28T12:28:37.781Z,4.87
2022-11-28T12:31:55.429Z,4.90
2022-11-28T12:35:00.848Z,4.95
2022-11-28T12:38:10.849Z,4.92
2022-11-28T12:41:25.092Z,4.82
2022-11-28T12:44:34.809Z,5.01
2022-11-28T12:47:43.325Z,5.15
2022-11-28T12:50:47.976Z,5.10
2022-11-28T12:54:05.358Z,5.14
2022-11-28T12:57:16.951Z,5.08
2022-11-28T13:00:21.226Z,5.03
2022-11-28T13:03:26.536Z,5.16
2022-11-28T13:06:31.773Z,5.19
2022-11-28T13:09:37.236Z,5.00
2022-11-28T13:12:54.957Z,4.99
2022-11-28T13:16:11.631Z,5.04
2022-11-28T13:19:26.323Z,5.13
2022-11-28T13:22:49.533Z,5.30
2022-11-28T13:26:14.828Z,5.29
2022-11-28T13:29:23.285Z,5.15
2022-11-28T13:32:35.327Z,5.01
2022-11-28T13:35:39.194Z,4.89
2022-11-28T13:39:11.718Z,4.92
2022-11-28T13:45:54.162Z,4.93
2022-11-28T13:49:19.730Z,4.95
2022-11-28T13:52:29.376Z,4.84
2022-11-28T13:55:46.458Z,4.81
2022-11-28T13:58:56.822Z,4.69
2022-11-28T14:02:04.883Z,4.65
2022-11-28T14:05:21.497Z,4.59
2022-11-28T14:08:38.300Z,4.68
2022-11-28T14:11:50.010Z,4.67
2022-11-28T14:15:07.954Z,4.60
2022-11-28T14:18:48.000Z,4.50
2022-11-28T14:21:46.794Z,4.44
2022-11-28T14:24:59.701Z,4.26
2022-11-28T14:28:03.910Z,4.17
2022-11-28T14:31:25.009Z,4.07
2022-11-28T14:34:56.798Z,3.95
2022-11-28T14:37:59.542Z,3.88
2022-11-28T14:41:03.584Z,3.85
2022-11-28T14:44:24.992Z,3.82
2022-11-28T14:47:42.863Z,3.76
2022-11-28T14:50:46.842Z,3.76
2022-11-28T14:53:49.877Z,3.70
2022-11-28T14:56:58.184Z,3.57
2022-11-28T15:00:05.350Z,3.44
2022-11-28T15:03:15.931Z,3.27
2022-11-28T15:06:20.803Z,3.19
2022-11-28T15:09:30.345Z,3.21
2022-11-28T15:12:37.770Z,3.14
2022-11-28T15:15:49.927Z,3.06
2022-11-28T15:18:55.170Z,2.90
2022-11-28T15:21:58.202Z,2.84
2022-11-28T15:25:00.468Z,2.73
2022-11-28T15:28:18.028Z,2.70
2022-11-28T15:31:23.532Z,2.64
2022-11-28T15:34:28.158Z,2.57
2022-11-28T15:37:34.637Z,2.55
2022-11-28T15:40:37.943Z,2.49
2022-11-28T15:43:45.489Z,2.35
2022-11-28T15:46:48.107Z,2.41
2022-11-28T15:50:01.043Z,2.34
2022-11-28T15:53:14.430Z,2.22
2022-11-28T15:56:16.690Z,2.09
2022-11-28T15:59:19.281Z,2.01
2022-11-28T16:02:26.544Z,2.02
2022-11-28T16:05:29.722Z,2.04
2022-11-28T16:08:34.856Z,2.01
2022-11-28T16:11:38.140Z,1.87
2022-11-28T16:14:44.016Z,1.79
2022-11-28T16:17:46.874Z,1.77
2022-11-28T16:20:49.383Z,1.84
2022-11-28T16:23:52.177Z,1.80
2022-11-28T16:26:56.313Z,1.88
2022-11-28T16:30:00.684Z,1.90
2022-11-28T16:33:28.727Z,1.99
2022-11-28T16:36:38.002Z,2.13
2022-11-28T16:39:40.333Z,2.29
2022-11-28T16:42:42.927Z,2.37
2022-11-28T16:45:45.142Z,2.39
2022-11-28T16:48:50.405Z,2.33
2022-11-28T16:52:13.287Z,2.18
2022-11-28T16:55:36.058Z,2.02
2022-11-28T16:58:38.291Z,1.89
2022-11-28T17:01:41.757Z,1.79
2022-11-28T17:04:44.610Z,1.81
2022-11-28T17:07:47.207Z,1.78
2022-11-28T17:10:49.457Z,1.63
2022-11-28T17:13:52.425Z,1.48
2022-11-28T17:16:56.479Z,1.36
2022-11-28T17:19:59.165Z,1.23
2022-11-28T17:23:01.400Z,1.28
2022-11-28T17:26:06.674Z,1.25
2022-11-28T17:29:10.606Z,1.22
2022-11-28T17:32:13.982Z,1.21
2022-11-28T17:35:22.354Z,1.10
2022-11-28T17:38:25.014Z,1.00
2022-11-28T17:41:27.717Z,1.04
2022-11-28T17:44:31.353Z,1.07
2022-11-28T17:47:35.090Z,1.05
2022-11-28T17:50:37.662Z,1.04
2022-11-28T17:53:43.523Z,0.90
2022-11-28T17:56:47.081Z,0.78
2022-11-28T17:59:49.322Z,0.77
2022-11-28T18:02:51.886Z,0.78
2022-11-28T18:05:54.637Z,0.81
2022-11-28T18:08:58.651Z,0.69
2022-11-28T18:12:01.287Z,0.55
2022-11-28T18:15:04.056Z,0.48
2022-11-28T18:18:06.751Z,0.44
2022-11-28T18:21:10.389Z,0.33
2022-11-28T18:24:13.217Z,0.30
2022-11-28T18:27:16.457Z,0.23
2022-11-28T18:30:19.178Z,0.22
2022-11-28T18:33:21.597Z,0.17
2022-11-28T18:36:25.562Z,0.16
2022-11-28T18:39:28.109Z,0.16
2022-11-28T18:42:30.631Z,0.21
2022-11-28T18:45:33.323Z,0.23
2022-11-28T18:48:36.795Z,0.26
2022-11-28T18:51:39.143Z,0.20
2022-11-28T18:54:41.971Z,0.13
2022-11-28T18:57:44.317Z,0.08
2022-11-28T19:00:47.561Z,0.05
2022-11-28T19:03:50.971Z,-0.02
2022-11-28T19:06:54.044Z,-0.03
2022-11-28T19:09:56.477Z,-0.10
2022-11-28T19:12:59.614Z,-0.15
2022-11-28T19:16:09.623Z,-0.16
2022-11-28T19:19:12.281Z,-0.05
2022-11-28T19:22:14.670Z,-0.02
2022-11-28T19:25:17.233Z,-0.06
2022-11-28T19:28:19.589Z,-0.13
2022-11-28T19:31:22.665Z,-0.13
2022-11-28T19:34:25.907Z,0.02
2022-11-28T19:37:29.314Z,-0.02
2022-11-28T19:40:31.612Z,-0.04
2022-11-28T19:43:34.970Z,-0.14
2022-11-28T19:46:37.592Z,-0.14
2022-11-28T19:49:40.552Z,-0.23
2022-11-28T19:52:43.404Z,-0.20
2022-11-28T19:55:46.263Z,-0.29
2022-11-28T19:58:49.006Z,-0.35
2022-11-28T20:01:53.884Z,-0.28
2022-11-28T20:04:58.023Z,-0.18
2022-11-28T20:08:00.938Z,-0.11
2022-11-28T20:11:10.549Z,-0.04
2022-11-28T20:14:14.331Z,0.01
2022-11-28T20:17:16.859Z,0.10
2022-11-28T20:20:19.593Z,0.10
2022-11-28T20:23:22.943Z,0.09
2022-11-28T20:26:26.874Z,0.16
2022-11-28T20:29:29.645Z,0.08
2022-11-28T20:32:31.959Z,-0.04
2022-11-28T20:35:34.478Z,0.10
2022-11-28T20:38:37.392Z,-0.02
2022-11-28T20:41:39.971Z,-0.10
2022-11-28T20:44:42.120Z,0.03
2022-11-28T20:47:49.663Z,-0.05
2022-11-28T20:50:52.318Z,-0.10
2022-11-28T20:53:56.260Z,-0.13
2022-11-28T20:57:20.350Z,-0.05
2022-11-28T21:00:26.378Z,0.13
2022-11-28T21:03:29.431Z,0.31
2022-11-28T21:06:31.979Z,0.39
2022-11-28T21:09:34.235Z,0.51
2022-11-28T21:12:36.716Z,0.57
2022-11-28T21:15:40.431Z,0.66
2022-11-28T21:18:44.101Z,0.73
2022-11-28T21:21:46.348Z,0.93
2022-11-28T21:24:50.551Z,1.00
2022-11-28T21:27:52.837Z,1.06
2022-11-28T21:30:55.328Z,1.11
2022-11-28T21:33:58.371Z,1.23
2022-11-28T21:37:00.823Z,1.31
2022-11-28T21:40:03.278Z,1.38
2022-11-28T21:43:05.841Z,1.43
2022-11-28T21:46:08.376Z,1.44
2022-11-28T21:49:11.139Z,1.51
2022-11-28T21:52:15.979Z,1.51
2022-11-28T21:55:19.809Z,1.67
2022-11-28T21:58:26.589Z,1.69
2022-11-28T22:01:29.996Z,1.67
2022-11-28T22:04:32.633Z,1.76
2022-11-28T22:07:35.627Z,1.69
2022-11-28T22:10:38.375Z,1.74
2022-11-28T22:13:42.299Z,1.75
2022-11-28T22:16:44.819Z,1.83
2022-11-28T22:19:47.390Z,1.87
2022-11-28T22:22:50.009Z,1.85
2022-11-28T22:25:52.629Z,1.88
2022-11-28T22:28:55.570Z,1.95
2022-11-28T22:31:58.207Z,2.06
2022-11-28T22:35:02.656Z,1.99
2022-11-28T22:38:04.885Z,2.00
2022-11-28T22:41:08.351Z,2.12
2022-11-28T22:44:11.606Z,1.95
2022-11-28T22:47:14.201Z,2.00
2022-11-28T22:50:16.550Z,1.98
2022-11-28T22:53:19.701Z,1.99
2022-11-28T22:56:22.369Z,2.02
2022-11-28T22:59:24.874Z,1.97
2022-11-28T23:02:30.878Z,2.02
2022-11-28T23:05:33.721Z,2.12
2022-11-28T23:08:36.322Z,2.04
2022-11-28T23:11:39.751Z,2.06
2022-11-28T23:14:43.011Z,2.15
2022-11-28T23:17:45.921Z,2.17
2022-11-28T23:20:48.261Z,2.14
2022-11-28T23:23:51.144Z,1.97
2022-11-28T23:26:53.875Z,1.95
2022-11-28T23:29:56.627Z,1.99
2022-11-28T23:32:59.061Z,1.83
2022-11-28T23:36:11.048Z,1.86
2022-11-28T23:39:14.864Z,1.89
2022-11-28T23:42:17.396Z,1.84
2022-11-28T23:45:19.613Z,1.63
2022-11-28T23:48:22.218Z,1.64
2022-11-28T23:51:25.925Z,1.60
2022-11-28T23:54:28.525Z,1.72
2022-11-28T23:57:30.842Z,1.77
